Time;durP1;ratioP1;P1;durP2;ratioP2;P2;SDS_P1;SDS_P2;PMS_P1;PMS_P2;Temp;Humidity;BMP_temperature;BMP_pressure;BME280_temperature;BME280_humidity;BME280_pressure;Samples;Min_cycle;Max_cycle;Signal;HPM_P1;HPM_P2
2022/11/02 00:00:32;;;;;;;7.30;2.97;;;10.10;99.90;;;;;;5032952;28;20083;-78
2022/11/02 00:02:58;;;;;;;7.47;2.40;;;10.10;99.90;;;;;;5038037;28;20584;-78
2022/11/02 00:05:25;;;;;;;5.18;2.20;;;10.10;99.90;;;;;;5037949;28;20053;-78
2022/11/02 00:07:52;;;;;;;4.57;2.10;;;10.20;99.90;;;;;;5032905;28;20034;-77
2022/11/02 00:10:18;;;;;;;4.45;1.98;;;10.20;99.90;;;;;;5032420;28;20025;-79
2022/11/02 00:12:44;;;;;;;4.70;2.35;;;10.20;99.90;;;;;;5039749;28;20037;-78
2022/11/02 00:15:10;;;;;;;14.32;2.45;;;10.30;99.90;;;;;;5053123;28;20026;-79
2022/11/02 00:17:37;;;;;;;3.88;2.15;;;10.30;99.90;;;;;;5035725;28;20037;-78
2022/11/02 00:20:04;;;;;;;4.05;2.20;;;10.30;99.90;;;;;;5032583;28;20026;-79
2022/11/02 00:22:30;;;;;;;4.55;2.40;;;10.40;99.90;;;;;;5038364;28;20033;-77
2022/11/02 00:24:56;;;;;;;6.55;1.88;;;10.30;99.90;;;;;;5030503;28;20033;-79
2022/11/02 00:27:22;;;;;;;4.22;1.70;;;10.40;99.90;;;;;;5036632;28;20084;-76
2022/11/02 00:29:51;;;;;;;3.45;1.65;;;10.40;99.90;;;;;;5023368;28;20082;-77
2022/11/02 00:32:16;;;;;;;3.65;2.17;;;10.40;99.90;;;;;;5027517;28;20037;-78
2022/11/02 00:34:42;;;;;;;4.93;1.92;;;10.40;99.90;;;;;;5037526;28;20386;-78
2022/11/02 00:37:07;;;;;;;4.32;1.77;;;10.40;99.90;;;;;;5038201;28;20075;-79
2022/11/02 00:39:33;;;;;;;7.03;2.00;;;10.40;99.90;;;;;;5038290;28;20101;-78
2022/11/02 00:41:59;;;;;;;5.28;1.88;;;10.30;99.90;;;;;;5038870;28;20053;-79
2022/11/02 00:44:30;;;;;;;4.53;2.10;;;10.30;99.90;;;;;;5038966;28;20075;-77
2022/11/02 00:46:56;;;;;;;3.65;1.83;;;10.30;99.90;;;;;;5037043;28;20061;-78
2022/11/02 00:49:21;;;;;;;4.13;1.55;;;10.30;99.90;;;;;;5039208;28;20032;-78
2022/11/02 00:51:47;;;;;;;4.18;1.65;;;10.30;99.90;;;;;;5032315;28;20022;-76
2022/11/02 00:54:12;;;;;;;3.83;1.60;;;10.30;99.90;;;;;;5032460;28;20061;-78
2022/11/02 00:56:38;;;;;;;3.25;1.83;;;10.30;99.90;;;;;;5036558;28;20079;-77
2022/11/02 00:59:04;;;;;;;5.72;1.90;;;10.20;99.90;;;;;;5035166;28;20028;-77
2022/11/02 01:01:29;;;;;;;3.50;1.70;;;10.20;99.90;;;;;;5033922;28;20424;-77
2022/11/02 01:03:56;;;;;;;5.75;1.80;;;10.20;99.90;;;;;;5033544;28;20032;-77
2022/11/02 01:06:22;;;;;;;3.90;1.65;;;10.10;99.90;;;;;;5025749;28;20088;-76
2022/11/02 01:08:47;;;;;;;5.90;2.20;;;10.20;99.90;;;;;;5019446;28;20025;-76
2022/11/02 01:11:31;;;;;;;4.75;1.73;;;10.10;99.90;;;;;;5047788;28;20060;-77
2022/11/02 01:14:00;;;;;;;3.88;1.58;;;10.10;99.90;;;;;;5035178;28;20025;-77
2022/11/02 01:16:26;;;;;;;3.83;1.67;;;10.10;99.90;;;;;;5034793;28;20033;-75
2022/11/02 01:18:53;;;;;;;6.13;1.73;;;10.10;99.90;;;;;;5030822;28;20029;-76
2022/11/02 01:21:20;;;;;;;3.35;1.65;;;10.10;99.90;;;;;;5027226;28;20017;-77
2022/11/02 01:23:45;;;;;;;5.68;2.50;;;10.00;99.90;;;;;;5031020;28;20030;-77
2022/11/02 01:26:11;;;;;;;7.63;2.03;;;10.00;99.90;;;;;;5033552;28;20021;-77
2022/11/02 01:28:41;;;;;;;4.88;1.88;;;10.00;99.90;;;;;;5039762;28;20033;-78
2022/11/02 01:31:07;;;;;;;3.50;1.42;;;10.00;99.90;;;;;;5036112;28;20025;-77
2022/11/02 01:33:36;;;;;;;3.78;1.73;;;9.90;99.90;;;;;;5037204;28;20159;-77
2022/11/02 01:36:06;;;;;;;3.65;1.70;;;9.90;99.90;;;;;;5036204;28;20029;-77
2022/11/02 01:38:32;;;;;;;3.33;1.45;;;9.90;99.90;;;;;;5041795;28;20029;-78
2022/11/02 01:40:59;;;;;;;4.95;2.28;;;9.90;99.90;;;;;;5040250;28;20076;-78
2022/11/02 01:43:33;;;;;;;13.40;1.75;;;9.90;99.90;;;;;;5040079;28;20040;-78
2022/11/02 01:46:33;;;;;;;7.95;1.70;;;9.90;99.90;;;;;;5028738;28;20038;-78
2022/11/02 01:49:08;;;;;;;5.20;1.70;;;9.90;99.90;;;;;;5024123;28;20030;-78
2022/11/02 01:52:09;;;;;;;4.72;1.52;;;9.90;99.90;;;;;;5039242;28;20036;-77
2022/11/02 01:54:58;;;;;;;6.15;2.13;;;9.90;99.90;;;;;;5037874;28;20149;-78
2022/11/02 01:57:26;;;;;;;3.53;1.73;;;9.90;99.90;;;;;;5033147;28;20049;-77
2022/11/02 02:00:04;;;;;;;3.15;1.67;;;9.90;99.90;;;;;;5018137;28;20029;-76
2022/11/02 02:03:16;;;;;;;4.65;1.40;;;10.00;99.90;;;;;;5035070;28;20096;-75
2022/11/02 02:05:46;;;;;;;5.05;1.67;;;9.90;99.90;;;;;;5014434;28;20209;-77
2022/11/02 02:08:15;;;;;;;3.25;1.67;;;9.90;99.90;;;;;;5025188;28;20083;-76
2022/11/02 02:10:41;;;;;;;4.68;1.65;;;9.90;99.90;;;;;;5032873;28;20021;-77
2022/11/02 02:13:14;;;;;;;5.13;1.50;;;9.90;99.90;;;;;;5045075;28;20026;-77
2022/11/02 02:15:55;;;;;;;5.65;1.30;;;10.00;99.90;;;;;;5026051;28;20021;-78
2022/11/02 02:18:49;;;;;;;5.35;1.67;;;10.00;99.90;;;;;;5034459;28;20026;-79
2022/11/02 02:21:23;;;;;;;3.23;1.50;;;9.90;99.90;;;;;;5019450;28;20517;-77
2022/11/02 02:24:14;;;;;;;4.43;1.55;;;10.00;99.90;;;;;;5022284;28;20685;-76
2022/11/02 02:27:13;;;;;;;3.95;1.60;;;10.00;99.90;;;;;;5026632;28;20496;-77
2022/11/02 02:30:00;;;;;;;4.40;1.30;;;10.00;99.90;;;;;;5023048;28;20064;-77
2022/11/02 02:32:36;;;;;;;4.65;1.30;;;10.00;99.90;;;;;;5034090;28;20030;-77
2022/11/02 02:35:14;;;;;;;8.63;1.48;;;10.00;99.90;;;;;;5040909;28;20018;-78
2022/11/02 02:37:56;;;;;;;5.53;1.50;;;10.00;99.90;;;;;;5036025;28;20041;-79
2022/11/02 02:40:34;;;;;;;4.63;2.10;;;10.00;99.90;;;;;;5036335;28;20028;-76
2022/11/02 02:43:26;;;;;;;6.57;1.40;;;10.00;99.90;;;;;;5031527;28;20037;-77
2022/11/02 02:45:59;;;;;;;4.57;1.17;;;10.00;99.90;;;;;;5022153;28;20089;-77
2022/11/02 02:48:26;;;;;;;5.05;1.20;;;10.00;99.90;;;;;;5029846;28;20100;-76
2022/11/02 02:51:03;;;;;;;5.00;1.55;;;10.00;99.90;;;;;;5030132;28;20021;-76
2022/11/02 02:53:41;;;;;;;4.25;1.13;;;10.00;99.90;;;;;;5038930;28;20026;-79
2022/11/02 02:56:16;;;;;;;2.70;1.38;;;10.00;99.90;;;;;;5027923;28;20108;-78
2022/11/02 02:59:03;;;;;;;3.58;1.42;;;10.00;99.90;;;;;;5031152;28;20025;-78
2022/11/02 03:01:30;;;;;;;3.33;1.10;;;10.00;99.90;;;;;;5034655;28;20025;-77
2022/11/02 03:03:55;;;;;;;7.80;1.40;;;10.00;99.90;;;;;;5033158;28;20021;-77
2022/11/02 03:06:31;;;;;;;7.35;1.20;;;10.00;99.90;;;;;;5032536;28;20386;-77
2022/11/02 03:09:17;;;;;;;5.00;1.42;;;10.00;99.90;;;;;;5026016;28;20100;-78
2022/11/02 03:12:20;;;;;;;6.70;1.25;;;10.00;99.90;;;;;;5049014;28;20034;-79
2022/11/02 03:14:58;;;;;;;4.88;1.00;;;10.10;99.90;;;;;;5031075;28;20025;-79
2022/11/02 03:17:49;;;;;;;12.80;2.05;;;10.10;99.90;;;;;;5033048;23;21176;-76
2022/11/02 03:20:30;;;;;;;5.68;1.55;;;10.10;99.90;;;;;;4998956;28;20422;-77
2022/11/02 03:23:20;;;;;;;4.95;1.35;;;10.10;99.90;;;;;;5009579;28;20053;-78
2022/11/02 03:26:14;;;;;;;3.90;1.30;;;10.10;99.90;;;;;;5031067;28;20037;-78
2022/11/02 03:29:01;;;;;;;2.80;1.30;;;10.10;99.90;;;;;;5028582;28;20038;-78
2022/11/02 03:31:49;;;;;;;4.10;1.60;;;10.10;99.90;;;;;;5010623;28;20025;-75
2022/11/02 03:34:35;;;;;;;3.83;1.20;;;10.10;99.90;;;;;;5006063;28;20041;-75
2022/11/02 03:37:13;;;;;;;3.80;1.02;;;10.10;99.90;;;;;;5009670;28;20113;-77
2022/11/02 03:39:48;;;;;;;2.67;1.45;;;10.10;99.90;;;;;;5006721;28;20029;-76
2022/11/02 03:42:20;;;;;;;5.57;1.35;;;10.10;99.90;;;;;;5006454;28;20022;-76
2022/11/02 03:44:58;;;;;;;7.68;1.88;;;10.10;99.90;;;;;;5009667;28;20026;-76
2022/11/02 03:47:29;;;;;;;2.15;1.05;;;10.10;99.90;;;;;;5004882;28;20537;-76
2022/11/02 03:50:04;;;;;;;4.22;1.25;;;10.20;99.90;;;;;;5009398;28;20056;-76
2022/11/02 03:52:32;;;;;;;6.82;1.40;;;10.20;99.90;;;;;;5006363;28;20038;-76
2022/11/02 03:55:11;;;;;;;5.93;1.02;;;10.20;99.90;;;;;;5007543;28;20030;-76
2022/11/02 03:57:42;;;;;;;6.53;1.90;;;10.20;99.90;;;;;;5009308;28;20056;-76
2022/11/02 04:00:12;;;;;;;3.28;1.30;;;10.20;99.90;;;;;;5007266;28;20101;-77
2022/11/02 04:02:40;;;;;;;3.58;1.20;;;10.20;99.90;;;;;;5007820;28;20634;-77
2022/11/02 04:05:06;;;;;;;2.50;1.05;;;10.20;99.90;;;;;;5013325;28;20029;-77
2022/11/02 04:10:27;;;;;;;5.07;0.98;;;10.20;99.90;;;;;;5005671;28;20052;-77
2022/11/02 04:15:37;;;;;;;2.42;0.93;;;10.20;99.90;;;;;;5006122;28;20041;-77
2022/11/02 04:20:51;;;;;;;2.75;0.82;;;10.30;99.90;;;;;;5008277;28;20041;-76
2022/11/02 04:26:06;;;;;;;6.85;1.20;;;10.40;99.90;;;;;;5004460;28;20037;-77
2022/11/02 04:28:35;;;;;;;3.60;1.17;;;10.40;99.90;;;;;;5004114;28;20030;-76
2022/11/02 04:31:00;;;;;;;5.10;1.27;;;10.40;99.90;;;;;;5009874;28;20072;-77
2022/11/02 04:33:32;;;;;;;6.53;1.10;;;10.40;99.90;;;;;;5007554;28;20053;-77
2022/11/02 04:36:02;;;;;;;2.28;1.10;;;10.40;99.90;;;;;;5011220;28;20041;-77
2022/11/02 04:38:41;;;;;;;5.18;1.02;;;10.50;99.90;;;;;;5007512;28;20032;-76
2022/11/02 04:44:01;;;;;;;1.83;0.95;;;10.50;99.90;;;;;;5012729;28;20095;-77
2022/11/02 04:46:32;;;;;;;7.00;2.00;;;10.50;99.90;;;;;;5010932;28;20033;-77
2022/11/02 04:48:58;;;;;;;6.90;1.23;;;10.50;99.90;;;;;;5010941;28;20049;-77
2022/11/02 04:51:28;;;;;;;4.07;1.10;;;10.40;99.90;;;;;;5010430;28;20077;-77
2022/11/02 04:53:56;;;;;;;1.98;0.93;;;10.40;99.90;;;;;;5014183;28;20453;-77
2022/11/02 04:56:22;;;;;;;4.82;1.00;;;10.40;99.90;;;;;;5010756;28;20086;-77
2022/11/02 04:59:06;;;;;;;5.55;1.55;;;10.30;99.90;;;;;;5012375;28;20034;-77
2022/11/02 05:01:34;;;;;;;3.55;1.17;;;10.30;99.90;;;;;;5011505;28;20044;-76
2022/11/02 05:04:04;;;;;;;3.80;1.17;;;10.30;99.90;;;;;;5011638;28;20679;-77
2022/11/02 05:06:29;;;;;;;7.22;1.58;;;10.30;99.90;;;;;;5011511;28;20076;-77
2022/11/02 05:09:09;;;;;;;5.05;1.70;;;10.20;99.90;;;;;;5013377;28;20438;-77
2022/11/02 05:11:37;;;;;;;4.95;1.80;;;10.10;99.90;;;;;;5008947;28;20034;-75
2022/11/02 05:14:03;;;;;;;6.32;1.80;;;10.10;99.90;;;;;;5008979;28;20048;-75
2022/11/02 05:16:28;;;;;;;4.65;1.73;;;10.00;99.90;;;;;;5009509;28;20105;-76
2022/11/02 05:19:00;;;;;;;4.40;2.05;;;9.90;99.90;;;;;;5009033;28;20046;-76
2022/11/02 05:21:26;;;;;;;6.55;2.22;;;9.90;99.90;;;;;;5009209;28;20053;-76
2022/11/02 05:23:54;;;;;;;7.65;2.60;;;9.80;99.90;;;;;;5009046;28;20057;-75
2022/11/02 05:26:20;;;;;;;4.75;2.22;;;9.70;99.90;;;;;;5009001;28;20041;-75
2022/11/02 05:28:46;;;;;;;6.72;2.30;;;9.70;99.90;;;;;;5008039;28;20030;-75
2022/11/02 05:31:14;;;;;;;5.80;2.42;;;9.60;99.90;;;;;;5008766;28;20034;-77
2022/11/02 05:33:46;;;;;;;3.50;1.98;;;9.60;99.90;;;;;;5007905;28;20034;-76
2022/11/02 05:36:12;;;;;;;11.30;3.10;;;9.50;99.90;;;;;;5005594;28;20456;-77
2022/11/02 05:38:40;;;;;;;5.32;3.30;;;9.50;99.90;;;;;;5006091;28;20026;-77
2022/11/02 05:41:18;;;;;;;5.93;2.45;;;9.50;99.90;;;;;;5007844;28;20037;-76
2022/11/02 05:43:43;;;;;;;7.40;2.85;;;9.50;99.90;;;;;;5008853;28;20026;-77
2022/11/02 05:46:09;;;;;;;4.43;2.00;;;9.40;99.90;;;;;;5010249;28;20048;-77
2022/11/02 05:48:35;;;;;;;7.00;2.72;;;9.40;99.90;;;;;;5011568;28;20647;-77
2022/11/02 05:51:02;;;;;;;6.63;2.65;;;9.30;99.90;;;;;;5007769;28;20026;-75
2022/11/02 05:53:37;;;;;;;8.77;2.83;;;9.40;99.90;;;;;;5006729;28;20041;-77
2022/11/02 05:56:08;;;;;;;7.45;2.53;;;9.30;99.90;;;;;;5006235;28;20032;-77
2022/11/02 05:58:37;;;;;;;4.60;2.45;;;9.30;99.90;;;;;;5011026;28;20106;-77
2022/11/02 06:01:05;;;;;;;7.25;2.80;;;9.20;99.90;;;;;;5009885;28;20034;-76
2022/11/02 06:03:31;;;;;;;6.95;2.80;;;9.20;99.90;;;;;;5009408;28;20153;-76
2022/11/02 06:05:59;;;;;;;5.75;2.40;;;9.20;99.90;;;;;;5009709;28;20033;-75
2022/11/02 06:08:25;;;;;;;8.23;2.72;;;9.20;99.90;;;;;;5007153;28;20049;-76
2022/11/02 06:10:53;;;;;;;6.47;2.40;;;9.10;99.90;;;;;;5010384;28;20475;-75
2022/11/02 06:13:19;;;;;;;6.55;2.90;;;9.10;99.90;;;;;;5008041;28;20068;-76
2022/11/02 06:15:45;;;;;;;9.10;2.50;;;9.10;99.90;;;;;;5007785;28;20054;-76
2022/11/02 06:18:10;;;;;;;5.80;2.78;;;9.20;99.90;;;;;;5008743;28;20037;-76
2022/11/02 06:20:36;;;;;;;5.82;2.78;;;9.20;99.90;;;;;;5011748;28;20391;-76
2022/11/02 06:23:13;;;;;;;7.50;3.22;;;9.10;99.90;;;;;;5009425;28;20116;-76
2022/11/02 06:25:38;;;;;;;6.32;3.15;;;9.20;99.90;;;;;;5010672;28;20072;-76
2022/11/02 06:28:04;;;;;;;7.85;2.97;;;9.10;99.90;;;;;;5010111;28;20025;-72
2022/11/02 06:30:33;;;;;;;7.68;3.13;;;9.10;99.90;;;;;;5007571;28;20049;-72
2022/11/02 06:32:59;;;;;;;5.93;3.10;;;9.10;99.90;;;;;;5007477;28;20484;-72
2022/11/02 06:35:24;;;;;;;7.40;3.42;;;9.10;99.90;;;;;;5008395;28;20025;-73
2022/11/02 06:37:53;;;;;;;10.38;3.67;;;9.20;99.90;;;;;;5008475;28;20083;-72
2022/11/02 06:40:18;;;;;;;6.00;2.78;;;9.20;99.90;;;;;;5012068;28;20022;-73
2022/11/02 06:42:54;;;;;;;7.97;3.45;;;9.20;99.90;;;;;;5010737;28;20028;-73
2022/11/02 06:45:23;;;;;;;5.97;2.30;;;9.30;99.90;;;;;;5010308;28;20066;-76
2022/11/02 06:47:49;;;;;;;11.90;3.42;;;9.30;99.90;;;;;;5006676;28;20037;-75
2022/11/02 06:50:14;;;;;;;8.48;2.65;;;9.40;99.90;;;;;;5009708;28;20044;-76
2022/11/02 06:52:45;;;;;;;9.98;2.33;;;9.50;99.90;;;;;;5012184;28;20033;-76
2022/11/02 06:55:12;;;;;;;10.93;2.70;;;9.60;99.90;;;;;;4999716;28;20030;-74
2022/11/02 06:57:39;;;;;;;11.15;3.05;;;9.70;99.90;;;;;;5005018;28;20026;-75
2022/11/02 07:00:18;;;;;;;7.80;3.13;;;9.70;99.90;;;;;;5006071;28;20026;-75
2022/11/02 07:02:44;;;;;;;6.28;2.30;;;9.80;99.90;;;;;;5019565;28;20033;-76
2022/11/02 07:05:10;;;;;;;10.30;2.95;;;9.90;99.90;;;;;;5008881;28;20040;-75
2022/11/02 07:07:41;;;;;;;10.93;3.08;;;10.00;99.90;;;;;;5008097;28;20026;-76
2022/11/02 07:10:09;;;;;;;6.68;2.80;;;10.00;99.90;;;;;;5004374;28;20433;-76
2022/11/02 07:12:35;;;;;;;8.07;2.90;;;10.10;99.90;;;;;;5007597;28;21800;-76
2022/11/02 07:15:04;;;;;;;10.38;3.42;;;10.10;99.90;;;;;;5008749;28;20026;-76
2022/11/02 07:17:29;;;;;;;11.43;3.50;;;10.20;99.90;;;;;;5006095;28;20106;-76
2022/11/02 07:19:55;;;;;;;13.52;5.05;;;10.20;99.90;;;;;;5005173;28;20449;-76
2022/11/02 07:22:21;;;;;;;15.50;4.05;;;10.30;99.90;;;;;;5009577;28;20022;-76
2022/11/02 07:24:46;;;;;;;11.15;4.05;;;10.30;99.90;;;;;;5008180;28;20045;-76
2022/11/02 07:27:19;;;;;;;12.10;4.00;;;10.30;99.90;;;;;;5010898;28;20049;-78
2022/11/02 07:29:48;;;;;;;17.63;4.47;;;10.30;99.90;;;;;;5010154;28;20025;-76
2022/11/02 07:32:16;;;;;;;13.18;4.75;;;10.30;99.90;;;;;;5008493;28;20022;-76
2022/11/02 07:34:45;;;;;;;11.95;4.07;;;10.40;99.90;;;;;;5008990;28;20053;-76
2022/11/02 07:37:17;;;;;;;10.30;4.35;;;10.40;99.90;;;;;;5020951;28;20132;-77
2022/11/02 07:39:42;;;;;;;14.93;4.90;;;10.40;99.90;;;;;;5005125;28;20026;-77
2022/11/02 07:42:09;;;;;;;8.32;3.78;;;10.40;99.90;;;;;;5014702;28;20045;-77
2022/11/02 07:44:34;;;;;;;16.70;3.80;;;10.50;99.90;;;;;;5023538;28;20308;-77
2022/11/02 07:47:00;;;;;;;8.80;2.97;;;10.50;99.90;;;;;;5008872;28;20025;-76
2022/11/02 07:49:26;;;;;;;5.50;3.10;;;10.60;99.90;;;;;;5020703;28;20566;-77
2022/11/02 07:51:55;;;;;;;10.95;2.65;;;10.60;99.90;;;;;;5007721;28;20164;-76
2022/11/02 07:54:20;;;;;;;7.82;2.35;;;10.70;99.90;;;;;;5006997;28;20034;-76
2022/11/02 07:56:52;;;;;;;11.18;2.65;;;10.70;99.90;;;;;;5011457;28;20363;-75
2022/11/02 07:59:17;;;;;;;15.98;3.88;;;10.70;99.90;;;;;;5010714;28;20025;-75
2022/11/02 08:01:49;;;;;;;6.90;2.58;;;10.80;99.90;;;;;;5006671;28;20030;-75
2022/11/02 08:04:14;;;;;;;7.10;2.72;;;10.80;99.90;;;;;;5010290;28;20152;-75
2022/11/02 08:06:40;;;;;;;7.40;2.50;;;10.80;99.90;;;;;;5011595;28;20101;-76
2022/11/02 08:09:06;;;;;;;6.28;2.83;;;10.90;99.90;;;;;;5013349;28;20038;-76
2022/11/02 08:11:31;;;;;;;10.00;3.10;;;10.90;99.90;;;;;;5009306;28;20388;-76
2022/11/02 08:13:57;;;;;;;8.45;2.40;;;10.90;99.90;;;;;;5012827;28;20525;-76
2022/11/02 08:16:23;;;;;;;9.10;3.28;;;11.00;99.90;;;;;;5010573;28;20517;-76
2022/11/02 08:18:49;;;;;;;10.93;3.30;;;11.00;99.90;;;;;;5009340;28;20038;-76
2022/11/02 08:21:14;;;;;;;7.68;3.08;;;11.10;99.90;;;;;;5016183;28;20344;-76
2022/11/02 08:23:40;;;;;;;13.02;3.63;;;11.10;99.90;;;;;;5009860;28;20026;-76
2022/11/02 08:26:11;;;;;;;8.50;2.92;;;11.10;99.90;;;;;;5010703;28;20048;-76
2022/11/02 08:28:39;;;;;;;9.73;2.92;;;11.20;99.90;;;;;;5010757;28;20022;-77
2022/11/02 08:31:14;;;;;;;9.43;2.80;;;11.20;99.90;;;;;;5013407;28;20053;-77
2022/11/02 08:33:44;;;;;;;12.45;3.53;;;11.30;99.90;;;;;;5010782;28;20032;-77
2022/11/02 08:36:12;;;;;;;8.15;3.40;;;11.40;99.90;;;;;;5012157;28;20025;-77
2022/11/02 08:38:38;;;;;;;9.43;3.08;;;11.40;99.90;;;;;;5020611;28;20030;-77
2022/11/02 08:41:04;;;;;;;11.20;3.45;;;11.40;99.90;;;;;;5011818;28;20494;-78
2022/11/02 08:43:36;;;;;;;9.70;2.72;;;11.50;99.90;;;;;;5013079;28;20032;-77
2022/11/02 08:46:02;;;;;;;8.07;3.58;;;11.60;99.90;;;;;;5006440;28;20101;-77
2022/11/02 08:48:27;;;;;;;7.57;3.60;;;11.60;99.90;;;;;;5013353;28;20472;-77
2022/11/02 08:50:54;;;;;;;8.63;3.30;;;11.70;99.90;;;;;;5004524;28;20491;-77
2022/11/02 08:53:20;;;;;;;10.30;3.13;;;11.70;99.90;;;;;;5010800;28;20097;-77
2022/11/02 08:55:46;;;;;;;10.23;3.03;;;11.80;99.90;;;;;;5003925;28;20034;-78
2022/11/02 08:58:11;;;;;;;8.90;2.70;;;11.90;99.90;;;;;;5010329;28;20498;-77
2022/11/02 09:00:40;;;;;;;9.52;2.47;;;12.00;99.90;;;;;;5018422;28;20293;-77
2022/11/02 09:03:11;;;;;;;11.82;3.22;;;12.00;99.90;;;;;;5014924;28;20583;-77
2022/11/02 09:05:42;;;;;;;9.43;3.05;;;12.10;99.90;;;;;;5020129;28;20033;-77
2022/11/02 09:08:16;;;;;;;13.45;2.45;;;12.20;99.90;;;;;;5017147;28;20192;-78
2022/11/02 09:10:42;;;;;;;5.53;1.90;;;12.30;99.90;;;;;;5011885;28;20045;-77
2022/11/02 09:13:12;;;;;;;10.48;2.45;;;12.40;99.90;;;;;;5027223;28;20211;-77
2022/11/02 09:15:40;;;;;;;7.05;2.47;;;12.50;99.90;;;;;;5010154;28;20534;-77
2022/11/02 09:18:08;;;;;;;10.18;2.88;;;12.50;99.90;;;;;;5015961;28;20030;-74
2022/11/02 09:20:42;;;;;;;6.25;1.88;;;12.60;99.90;;;;;;5016657;28;20410;-73
2022/11/02 09:23:08;;;;;;;8.07;1.75;;;12.70;99.90;;;;;;5016343;28;20032;-73
2022/11/02 09:25:33;;;;;;;3.72;1.50;;;12.80;99.90;;;;;;5015699;28;20022;-73
2022/11/02 09:27:59;;;;;;;5.75;1.30;;;12.90;99.90;;;;;;4998178;28;20080;-74
2022/11/02 09:30:27;;;;;;;4.32;1.42;;;13.10;99.90;;;;;;5014147;28;20386;-74
2022/11/02 09:33:04;;;;;;;7.15;1.80;;;13.10;99.90;;;;;;5015905;28;20036;-74
2022/11/02 09:35:33;;;;;;;6.30;1.85;;;13.20;99.90;;;;;;5015607;28;20085;-73
2022/11/02 09:37:58;;;;;;;6.95;1.58;;;13.30;99.90;;;;;;5015497;28;20407;-73
2022/11/02 09:40:27;;;;;;;5.78;1.48;;;13.40;99.90;;;;;;5015439;28;20033;-73
2022/11/02 09:43:32;;;;;;;10.60;1.55;;;13.50;99.90;;;;;;5013756;28;20109;-73
2022/11/02 09:46:16;;;;;;;7.82;1.60;;;13.50;99.90;;;;;;5013258;28;20037;-73
2022/11/02 09:48:51;;;;;;;;;;;13.50;99.90;;;;;;5015181;28;20564;-73
2022/11/02 09:51:56;;;;;;;6.55;1.77;;;13.60;99.90;;;;;;5014834;28;19909;-73
2022/11/02 09:54:46;;;;;;;;;;;13.70;99.90;;;;;;5014904;28;20390;-73
2022/11/02 09:57:44;;;;;;;6.47;2.10;;;13.70;99.90;;;;;;5013458;28;19963;-73
2022/11/02 10:00:17;;;;;;;8.05;1.52;;;13.80;99.90;;;;;;5014137;28;20042;-73
2022/11/02 10:03:20;;;;;;;8.30;1.90;;;13.80;99.90;;;;;;5014931;28;20422;-73
2022/11/02 10:05:56;;;;;;;4.35;1.55;;;13.90;99.90;;;;;;5014706;28;20537;-73
2022/11/02 10:08:59;;;;;;;7.85;1.48;;;13.90;99.90;;;;;;5014446;28;20116;-73
2022/11/02 10:11:31;;;;;;;5.50;1.30;;;14.00;99.90;;;;;;5015362;28;20033;-73
2022/11/02 10:14:14;;;;;;;7.22;1.63;;;14.00;99.90;;;;;;5014009;28;20113;-73
2022/11/02 10:17:13;;;;;;;9.10;1.85;;;14.00;99.90;;;;;;5013059;28;20026;-73
2022/11/02 10:19:52;;;;;;;7.22;1.77;;;14.10;99.90;;;;;;5014419;28;20096;-71
2022/11/02 10:22:26;;;;;;;5.85;1.27;;;14.10;99.90;;;;;;5014014;28;20022;-73
2022/11/02 10:24:55;;;;;;;3.13;1.10;;;14.20;99.90;;;;;;5014218;28;20026;-73
2022/11/02 10:27:33;;;;;;;7.28;1.35;;;14.20;99.90;;;;;;5013165;28;20025;-73
2022/11/02 10:30:10;;;;;;;12.32;1.60;;;14.20;99.90;;;;;;5014448;28;20041;-72
2022/11/02 10:32:39;;;;;;;4.65;1.40;;;14.20;99.90;;;;;;5013013;28;20083;-73
2022/11/02 10:35:42;;;;;;;4.55;1.50;;;14.20;99.90;;;;;;5014385;28;20021;-73
2022/11/02 10:38:47;;;;;;;4.32;1.13;;;14.30;99.90;;;;;;5013160;28;20041;-73
2022/11/02 10:41:24;;;;;;;5.95;1.02;;;14.30;99.90;;;;;;5014060;28;20026;-73
2022/11/02 10:44:07;;;;;;;2.80;1.23;;;14.30;99.90;;;;;;5013616;28;20026;-73
2022/11/02 10:47:14;;;;;;;7.25;1.98;;;14.30;99.90;;;;;;5012152;28;20141;-71
2022/11/02 10:49:56;;;;;;;6.07;1.48;;;14.30;99.90;;;;;;5012297;28;20387;-73
2022/11/02 10:52:22;;;;;;;9.27;1.90;;;14.40;99.90;;;;;;5013454;28;20026;-73
2022/11/02 10:54:54;;;;;;;8.27;1.63;;;14.40;99.90;;;;;;5013795;28;20029;-73
2022/11/02 10:57:24;;;;;;;8.52;1.50;;;14.40;99.90;;;;;;5013295;28;20025;-73
2022/11/02 11:00:27;;;;;;;6.13;1.98;;;14.50;99.90;;;;;;5013549;28;20022;-73
2022/11/02 11:03:11;;;;;;;9.45;1.48;;;14.50;99.90;;;;;;5013502;28;20372;-73
2022/11/02 11:05:55;;;;;;;5.50;1.17;;;14.60;99.90;;;;;;5013613;28;20475;-72
2022/11/02 11:08:30;;;;;;;12.00;2.05;;;14.60;99.90;;;;;;5011695;28;20057;-73
2022/11/02 11:11:28;;;;;;;7.50;1.63;;;14.60;99.90;;;;;;5013439;28;20057;-74
2022/11/02 11:13:55;;;;;;;7.97;1.55;;;14.70;99.90;;;;;;5013454;28;20026;-73
2022/11/02 11:16:52;;;;;;;5.25;1.38;;;14.70;99.90;;;;;;5013679;28;20026;-74
2022/11/02 11:19:45;;;;;;;6.22;1.20;;;14.70;99.90;;;;;;5012891;28;20049;-74
2022/11/02 11:22:35;;;;;;;7.45;1.52;;;14.70;99.90;;;;;;5013674;28;20030;-73
2022/11/02 11:25:26;;;;;;;6.97;1.27;;;14.80;99.90;;;;;;5013088;28;20063;-74
2022/11/02 11:27:56;;;;;;;7.07;1.63;;;14.80;99.90;;;;;;5012684;28;20084;-74
2022/11/02 11:30:47;;;;;;;6.65;1.98;;;14.80;99.90;;;;;;5013087;28;20026;-73
2022/11/02 11:33:19;;;;;;;5.03;1.35;;;14.90;99.90;;;;;;5009202;28;20054;-74
2022/11/02 11:35:48;;;;;;;5.63;1.90;;;14.90;99.90;;;;;;5012832;28;20093;-73
2022/11/02 11:38:26;;;;;;;8.25;1.63;;;14.90;99.90;;;;;;5012482;28;20045;-73
2022/11/02 11:41:02;;;;;;;4.60;1.40;;;14.90;99.90;;;;;;5012877;28;20044;-74
2022/11/02 11:43:36;;;;;;;10.48;1.60;;;14.90;99.90;;;;;;5012640;28;20026;-73
2022/11/02 11:46:07;;;;;;;4.82;1.75;;;14.80;99.90;;;;;;5011556;28;20398;-74
2022/11/02 11:48:52;;;;;;;8.13;1.42;;;14.80;99.90;;;;;;5012522;28;20155;-73
2022/11/02 11:51:38;;;;;;;6.22;1.27;;;14.80;99.90;;;;;;5011738;28;20033;-73
2022/11/02 11:54:26;;;;;;;2.90;1.17;;;14.80;99.90;;;;;;5012833;28;20022;-74
2022/11/02 11:57:23;;;;;;;6.10;0.93;;;14.80;99.90;;;;;;5012903;28;20022;-74
2022/11/02 11:59:57;;;;;;;6.38;1.63;;;14.80;99.90;;;;;;5013289;28;20050;-73
2022/11/02 12:02:34;;;;;;;3.60;1.00;;;14.70;99.90;;;;;;5012948;28;20042;-74
2022/11/02 12:05:17;;;;;;;6.80;1.27;;;14.70;99.90;;;;;;5011772;28;20036;-74
2022/11/02 12:08:14;;;;;;;2.20;0.90;;;14.60;99.90;;;;;;5011404;28;20032;-74
2022/11/02 12:11:05;;;;;;;3.33;1.35;;;14.50;99.90;;;;;;5012306;28;20479;-74
2022/11/02 12:13:49;;;;;;;5.28;2.05;;;14.40;99.90;;;;;;5013555;28;20026;-74
2022/11/02 12:16:41;;;;;;;;;;;14.40;99.90;;;;;;5014984;28;20105;-75
2022/11/02 12:19:29;;;;;;;6.80;1.15;;;14.40;99.90;;;;;;5011534;28;19990;-74
2022/11/02 12:22:35;;;;;;;6.85;1.40;;;14.40;99.90;;;;;;5012993;28;20037;-74
2022/11/02 12:25:34;;;;;;;4.55;1.60;;;14.30;99.90;;;;;;5012615;28;20491;-74
2022/11/02 12:28:07;;;;;;;13.65;2.65;;;14.40;99.90;;;;;;5012695;28;20030;-74
2022/11/02 12:31:04;;;;;;;4.60;1.57;;;14.40;99.90;;;;;;5012338;28;20068;-74
2022/11/02 12:33:56;;;;;;;3.88;1.52;;;14.40;99.90;;;;;;5012767;28;20291;-75
2022/11/02 12:36:42;;;;;;;7.63;1.45;;;14.40;99.90;;;;;;5014554;28;20026;-75
2022/11/02 12:39:23;;;;;;;6.13;1.15;;;14.40;99.90;;;;;;5016093;28;20091;-74
2022/11/02 12:41:55;;;;;;;3.80;1.10;;;14.40;99.90;;;;;;5014288;28;20382;-73
2022/11/02 12:44:39;;;;;;;6.85;1.33;;;14.40;99.90;;;;;;5016289;28;20030;-73
2022/11/02 12:47:26;;;;;;;6.13;1.27;;;14.40;99.90;;;;;;5014820;28;20064;-74
2022/11/02 12:49:55;;;;;;;5.30;1.73;;;14.40;99.90;;;;;;5013691;28;20091;-75
2022/11/02 12:52:37;;;;;;;7.53;1.40;;;14.40;99.90;;;;;;5017365;28;20018;-75
2022/11/02 12:55:05;;;;;;;4.30;1.38;;;14.50;99.90;;;;;;5016895;28;20037;-74
2022/11/02 12:57:35;;;;;;;7.15;1.30;;;14.50;99.90;;;;;;5016975;28;20057;-75
2022/11/02 13:00:07;;;;;;;5.53;1.75;;;14.60;99.90;;;;;;5015788;28;20076;-76
2022/11/02 13:03:13;;;;;;;9.55;1.48;;;14.60;99.90;;;;;;5016084;28;20030;-74
2022/11/02 13:05:52;;;;;;;7.20;1.35;;;14.70;99.90;;;;;;5016886;28;20065;-76
2022/11/02 13:08:37;;;;;;;7.78;1.65;;;14.70;99.90;;;;;;5015512;28;20072;-75
2022/11/02 13:11:16;;;;;;;5.82;1.48;;;14.70;99.90;;;;;;5016979;28;20383;-75
2022/11/02 13:13:45;;;;;;;7.43;1.75;;;14.70;99.90;;;;;;5017555;28;20140;-75
2022/11/02 13:16:14;;;;;;;4.60;1.15;;;14.80;99.90;;;;;;5017330;28;20026;-75
2022/11/02 13:18:52;;;;;;;3.75;1.35;;;14.70;99.90;;;;;;5015502;28;20033;-75
2022/11/02 13:21:35;;;;;;;6.05;1.30;;;14.70;99.90;;;;;;5014408;28;20025;-75
2022/11/02 13:24:01;;;;;;;5.53;1.40;;;14.80;99.90;;;;;;5015658;28;20094;-75
2022/11/02 13:26:36;;;;;;;6.97;1.65;;;14.80;99.90;;;;;;5015536;28;20045;-75
2022/11/02 13:29:18;;;;;;;5.80;1.50;;;14.80;99.90;;;;;;5015066;28;20080;-75
2022/11/02 13:31:51;;;;;;;5.95;1.30;;;14.80;99.90;;;;;;5015433;28;20036;-75
2022/11/02 13:34:27;;;;;;;7.00;1.35;;;14.80;99.90;;;;;;5014228;28;20061;-74
2022/11/02 13:36:53;;;;;;;6.85;1.95;;;14.80;99.90;;;;;;5015281;28;20075;-75